Time;durP1;ratioP1;P1;durP2;ratioP2;P2;SDS_P1;SDS_P2;PMS_P1;PMS_P2;Temp;Humidity;BMP_temperature;BMP_pressure;BME280_temperature;BME280_humidity;BME280_pressure;Samples;Min_cycle;Max_cycle;Signal;HPM_P1;HPM_P2
2020/12/02 00:01:31;;;;;;;7.53;3.30;;;27.20;90.40;;;;;;3640243;32;20527;-89
2020/12/02 00:04:30;;;;;;;6.68;3.17;;;27.20;90.60;;;;;;3612190;32;20089;-86
2020/12/02 00:07:00;;;;;;;7.25;4.20;;;27.10;90.70;;;;;;3543049;40;20199;-87
2020/12/02 00:09:27;;;;;;;6.28;4.70;;;27.20;90.60;;;;;;3578301;33;20105;-86
2020/12/02 00:11:54;;;;;;;7.03;3.95;;;27.10;91.70;;;;;;3530977;40;20089;-86
2020/12/02 00:14:27;;;;;;;7.50;2.67;;;26.90;91.80;;;;;;3611967;33;20085;-85
2020/12/02 00:16:54;;;;;;;4.30;2.67;;;26.90;91.30;;;;;;3514632;40;20098;-85
2020/12/02 00:19:21;;;;;;;4.88;2.47;;;26.90;91.70;;;;;;3551382;33;20190;-85
2020/12/02 00:22:05;;;;;;;5.55;2.58;;;26.90;91.50;;;;;;3527184;33;20093;-86
2020/12/02 00:24:34;;;;;;;4.45;2.50;;;27.00;91.20;;;;;;3506780;41;20093;-87
2020/12/02 00:27:25;;;;;;;6.93;4.15;;;27.00;91.50;;;;;;3591919;33;20090;-83
2020/12/02 00:29:52;;;;;;;5.88;3.55;;;27.00;91.80;;;;;;3505822;41;20137;-83
2020/12/02 00:32:26;;;;;;;6.18;2.63;;;26.90;91.80;;;;;;3557645;33;20093;-86
2020/12/02 00:34:52;;;;;;;4.60;2.60;;;27.00;91.60;;;;;;3507651;33;20086;-87
2020/12/02 00:37:19;;;;;;;4.90;1.98;;;27.00;91.50;;;;;;3635898;33;20144;-87
2020/12/02 00:39:50;;;;;;;4.70;2.90;;;27.00;91.60;;;;;;3551796;33;20102;-86
2020/12/02 00:42:18;;;;;;;5.68;3.60;;;26.90;92.10;;;;;;3520779;40;20113;-88
2020/12/02 00:44:49;;;;;;;3.40;1.88;;;26.60;92.70;;;;;;3561881;33;20150;-85
2020/12/02 00:47:22;;;;;;;1.73;0.93;;;26.30;93.30;;;;;;3574821;33;20274;-85
2020/12/02 00:50:12;;;;;;;3.08;0.90;;;26.10;93.80;;;;;;3591287;33;20064;-88
2020/12/02 00:52:38;;;;;;;1.25;0.85;;;26.00;94.20;;;;;;3591602;32;20096;-88
2020/12/02 00:55:08;;;;;;;3.50;1.20;;;25.80;94.60;;;;;;3626469;32;20111;-88
2020/12/02 00:57:38;;;;;;;0.98;0.47;;;25.60;94.40;;;;;;3662947;32;20088;-86
2020/12/02 01:00:08;;;;;;;0.95;0.35;;;25.30;94.40;;;;;;3556624;32;20160;-84
2020/12/02 01:02:52;;;;;;;1.40;0.40;;;25.20;94.60;;;;;;3563857;40;20088;-87
2020/12/02 01:05:23;;;;;;;3.80;0.98;;;25.10;94.90;;;;;;3577944;32;20083;-86
2020/12/02 01:07:49;;;;;;;1.33;0.60;;;25.00;95.10;;;;;;3607742;32;20092;-86
2020/12/02 01:10:19;;;;;;;0.70;0.50;;;25.00;95.20;;;;;;3653573;32;20091;-87
2020/12/02 01:12:48;;;;;;;2.33;0.40;;;25.00;95.10;;;;;;3563064;40;20108;-86
2020/12/02 01:15:21;;;;;;;1.63;0.50;;;25.00;95.20;;;;;;3632125;32;20084;-87
2020/12/02 01:18:08;;;;;;;;;;;25.00;95.10;;;;;;3562032;40;20112;-87
2020/12/02 01:20:34;;;;;;;3.83;0.52;;;25.00;95.10;;;;;;3632773;32;19984;-87
2020/12/02 01:23:01;;;;;;;2.78;0.70;;;25.00;95.20;;;;;;3568881;32;20095;-88
2020/12/02 01:25:31;;;;;;;0.80;0.50;;;24.90;95.10;;;;;;3562383;40;20092;-85
2020/12/02 01:28:07;;;;;;;0.47;0.30;;;24.80;95.20;;;;;;3576105;32;20116;-88
2020/12/02 01:30:39;;;;;;;0.20;0.20;;;24.70;95.70;;;;;;3547663;33;20093;-84
2020/12/02 01:33:06;;;;;;;2.65;0.40;;;24.60;95.80;;;;;;3524886;40;20085;-85
2020/12/02 01:35:33;;;;;;;0.30;0.30;;;24.60;95.90;;;;;;3603855;33;20089;-84
2020/12/02 01:38:04;;;;;;;0.45;0.22;;;24.60;96.00;;;;;;3536277;33;20081;-84
2020/12/02 01:40:35;;;;;;;0.52;0.20;;;24.60;96.10;;;;;;3534164;40;20097;-85
2020/12/02 01:43:11;;;;;;;0.68;0.30;;;24.50;96.10;;;;;;3547945;33;20094;-86
2020/12/02 01:45:56;;;;;;;1.13;0.22;;;24.50;96.20;;;;;;3967792;33;20185;-86
2020/12/02 01:51:27;;;;;;;0.70;0.20;;;24.40;96.40;;;;;;3870494;27;20228;-86
2020/12/02 01:54:13;;;;;;;1.15;0.60;;;24.50;96.70;;;;;;3651397;32;20109;-85
2020/12/02 01:56:41;;;;;;;0.80;0.35;;;24.40;96.50;;;;;;3583721;40;20116;-88
2020/12/02 01:59:49;;;;;;;2.17;0.25;;;24.30;96.60;;;;;;3584377;40;20624;-87
2020/12/02 02:03:06;;;;;;;0.57;0.20;;;24.30;96.60;;;;;;3576128;32;20127;-86
2020/12/02 02:06:01;;;;;;;4.40;0.52;;;24.40;96.50;;;;;;3545650;40;20326;-88
2020/12/02 02:08:33;;;;;;;0.10;0.10;;;24.40;96.50;;;;;;3549784;32;20103;-87
2020/12/02 02:11:03;;;;;;;0.82;0.28;;;24.30;96.40;;;;;;3621226;32;20151;-86
2020/12/02 02:14:09;;;;;;;0.20;0.20;;;24.30;96.50;;;;;;3622079;32;20397;-87
2020/12/02 02:16:42;;;;;;;1.48;0.20;;;24.30;96.30;;;;;;3629835;27;20093;-85
2020/12/02 02:19:20;;;;;;;0.60;0.13;;;24.30;96.30;;;;;;3584286;40;20399;-86
2020/12/02 02:21:54;;;;;;;2.15;0.50;;;24.30;96.40;;;;;;3648105;32;20142;-86
2020/12/02 02:27:02;;;;;;;0.30;0.10;;;24.20;96.70;;;;;;3591820;40;20131;-86
2020/12/02 02:29:37;;;;;;;0.10;0.00;;;24.30;96.70;;;;;;3575082;40;20104;-87
2020/12/02 02:32:13;;;;;;;0.47;0.20;;;24.30;96.60;;;;;;3611588;32;20387;-88
2020/12/02 02:34:46;;;;;;;0.10;0.10;;;24.40;96.50;;;;;;3622367;32;20083;-88
2020/12/02 02:37:13;;;;;;;;;;;24.40;96.40;;;;;;3575328;32;20355;-87
2020/12/02 02:39:40;;;;;;;2.38;0.10;;;24.30;96.30;;;;;;3580666;40;20030;-87
2020/12/02 02:42:31;;;;;;;1.38;0.10;;;24.40;96.20;;;;;;3600944;32;20159;-87
2020/12/02 02:45:00;;;;;;;0.40;0.20;;;24.60;95.90;;;;;;3630052;32;20103;-85
2020/12/02 02:47:29;;;;;;;0.00;0.00;;;24.60;95.50;;;;;;3593479;32;20181;-87
2020/12/02 02:49:56;;;;;;;0.00;0.00;;;24.80;95.40;;;;;;3646938;32;20123;-88
2020/12/02 02:52:23;;;;;;;0.30;0.20;;;24.90;95.00;;;;;;3661075;32;20376;-85
2020/12/02 02:54:58;;;;;;;1.45;0.13;;;24.90;94.80;;;;;;3574587;40;20088;-88
2020/12/02 02:57:25;;;;;;;0.20;0.10;;;24.90;95.10;;;;;;3576387;40;20087;-87
2020/12/02 02:59:59;;;;;;;0.40;0.15;;;24.90;94.70;;;;;;3636733;32;20109;-87
2020/12/02 03:02:25;;;;;;;1.10;0.20;;;25.00;94.60;;;;;;3638297;32;20116;-87
2020/12/02 03:04:53;;;;;;;0.65;0.40;;;25.10;94.60;;;;;;3662499;32;20094;-88
2020/12/02 03:07:22;;;;;;;0.88;0.13;;;25.10;94.50;;;;;;3623140;32;20090;-85
2020/12/02 03:09:49;;;;;;;0.20;0.10;;;25.00;94.70;;;;;;3675116;32;20104;-87
2020/12/02 03:12:16;;;;;;;1.35;0.20;;;24.90;94.80;;;;;;3632560;32;20422;-88
2020/12/02 03:14:42;;;;;;;3.70;2.25;;;24.90;94.60;;;;;;3610270;32;20146;-87
2020/12/02 03:17:18;;;;;;;4.18;3.10;;;25.00;94.80;;;;;;3622311;32;20088;-82
2020/12/02 03:20:02;;;;;;;3.78;2.60;;;25.10;94.80;;;;;;3650846;32;20230;-86
2020/12/02 03:22:32;;;;;;;1.02;0.68;;;25.00;95.00;;;;;;3584351;40;20258;-87
2020/12/02 03:25:01;;;;;;;0.90;0.40;;;25.00;95.20;;;;;;3633948;32;20450;-88
2020/12/02 03:27:27;;;;;;;2.90;0.55;;;24.90;95.40;;;;;;3584678;32;20107;-86
2020/12/02 03:29:57;;;;;;;0.30;0.20;;;24.90;95.60;;;;;;3652178;32;20107;-86
2020/12/02 03:32:24;;;;;;;3.00;0.40;;;24.90;95.80;;;;;;3652796;32;20099;-86
2020/12/02 03:34:50;;;;;;;0.65;0.22;;;24.80;96.10;;;;;;3582301;40;20095;-86
2020/12/02 03:37:20;;;;;;;0.60;0.20;;;24.60;96.20;;;;;;3583904;32;20088;-86
2020/12/02 03:40:08;;;;;;;0.10;0.10;;;24.60;96.30;;;;;;3629902;32;20091;-87
2020/12/02 03:42:38;;;;;;;1.73;0.20;;;24.60;96.30;;;;;;3581633;40;20284;-86
2020/12/02 03:45:07;;;;;;;0.73;0.20;;;24.50;96.40;;;;;;3648920;32;20111;-86
2020/12/02 03:47:52;;;;;;;0.30;0.10;;;24.50;96.40;;;;;;3571224;40;20084;-87
2020/12/02 03:50:24;;;;;;;1.38;0.32;;;24.50;96.40;;;;;;3583633;35;20106;-87
2020/12/02 03:53:03;;;;;;;0.45;0.35;;;24.40;96.60;;;;;;3581302;40;20111;-88
2020/12/02 03:55:36;;;;;;;0.68;0.20;;;24.40;96.70;;;;;;3581380;40;20099;-87
2020/12/02 03:58:03;;;;;;;0.28;0.20;;;24.40;96.80;;;;;;3581558;40;20185;-87
2020/12/02 04:00:30;;;;;;;0.52;0.25;;;24.40;96.80;;;;;;3626067;32;20091;-87
2020/12/02 04:02:57;;;;;;;0.10;0.10;;;24.40;96.70;;;;;;3583686;40;20105;-87
2020/12/02 04:05:24;;;;;;;0.35;0.28;;;24.40;96.80;;;;;;3581561;40;20110;-86
2020/12/02 04:07:51;;;;;;;0.22;0.22;;;24.40;96.70;;;;;;3632682;32;20095;-87
2020/12/02 04:10:18;;;;;;;1.30;0.60;;;24.40;96.90;;;;;;3663306;32;20093;-86
2020/12/02 04:12:47;;;;;;;0.47;0.20;;;24.40;96.80;;;;;;3571765;32;20116;-86
2020/12/02 04:15:50;;;;;;;0.22;0.13;;;24.50;96.70;;;;;;3640110;32;20104;-85
2020/12/02 04:18:17;;;;;;;0.75;0.32;;;24.40;96.70;;;;;;3568883;40;20091;-86
2020/12/02 04:20:46;;;;;;;0.30;0.30;;;24.40;96.90;;;;;;3581094;32;20095;-86
2020/12/02 04:23:13;;;;;;;0.30;0.30;;;24.40;97.10;;;;;;3570647;40;20272;-84
2020/12/02 04:25:39;;;;;;;0.60;0.47;;;24.30;96.90;;;;;;3608022;32;20118;-86
2020/12/02 04:28:06;;;;;;;0.32;0.30;;;24.30;97.20;;;;;;3630572;32;20107;-87
2020/12/02 04:30:33;;;;;;;0.50;0.32;;;24.30;97.40;;;;;;3595419;32;20087;-87
2020/12/02 04:32:59;;;;;;;1.05;0.50;;;24.30;97.40;;;;;;3669847;32;20099;-86
2020/12/02 04:35:26;;;;;;;0.40;0.20;;;24.30;97.40;;;;;;3632023;32;20100;-86
2020/12/02 04:37:53;;;;;;;0.55;0.30;;;24.30;97.50;;;;;;3604736;32;20099;-87
2020/12/02 04:40:33;;;;;;;0.90;0.40;;;24.30;97.30;;;;;;3615636;32;20143;-86
2020/12/02 04:43:51;;;;;;;0.40;0.30;;;24.30;97.30;;;;;;3624928;32;20096;-87
2020/12/02 04:46:25;;;;;;;2.30;0.40;;;24.30;97.40;;;;;;3573472;33;20103;-85
2020/12/02 04:49:03;;;;;;;0.30;0.20;;;24.30;97.30;;;;;;3655462;32;20100;-86
2020/12/02 04:51:30;;;;;;;0.40;0.35;;;24.30;97.30;;;;;;3604612;32;20095;-86
2020/12/02 04:53:59;;;;;;;0.98;0.45;;;24.40;97.10;;;;;;3626876;32;20099;-85
2020/12/02 04:56:28;;;;;;;0.95;0.30;;;24.30;97.10;;;;;;3569851;40;20123;-86
2020/12/02 04:58:57;;;;;;;0.22;0.20;;;24.30;97.10;;;;;;3598480;32;20139;-86
2020/12/02 05:01:32;;;;;;;1.95;0.40;;;24.30;97.10;;;;;;3632497;32;20084;-85
2020/12/02 05:04:20;;;;;;;0.20;0.20;;;24.30;97.00;;;;;;3619412;32;20187;-85
2020/12/02 05:06:51;;;;;;;0.20;0.20;;;24.30;97.20;;;;;;3629832;32;20131;-86
2020/12/02 05:09:21;;;;;;;3.10;0.35;;;24.30;97.10;;;;;;3626108;32;20107;-86
2020/12/02 05:12:02;;;;;;;0.10;0.10;;;24.30;97.00;;;;;;3569980;40;20378;-87
2020/12/02 05:14:39;;;;;;;0.52;0.30;;;24.30;97.00;;;;;;3620963;32;20126;-86
2020/12/02 05:17:27;;;;;;;1.15;0.13;;;24.30;96.90;;;;;;3581729;40;20318;-87
2020/12/02 05:20:11;;;;;;;1.08;0.40;;;24.40;96.80;;;;;;3629683;32;20102;-86
2020/12/02 05:22:46;;;;;;;0.98;0.40;;;24.40;96.80;;;;;;3623493;32;20313;-85
2020/12/02 05:25:34;;;;;;;1.20;0.30;;;24.50;96.50;;;;;;3613554;32;20091;-84
2020/12/02 05:28:05;;;;;;;0.25;0.25;;;24.30;96.70;;;;;;3663950;32;20283;-88
2020/12/02 05:30:36;;;;;;;0.60;0.30;;;24.30;96.70;;;;;;3593401;32;20177;-87
2020/12/02 05:33:14;;;;;;;1.40;0.22;;;24.30;96.80;;;;;;3644063;32;20095;-86
2020/12/02 05:36:00;;;;;;;0.40;0.40;;;24.30;96.80;;;;;;3574847;40;20120;-85
2020/12/02 05:38:34;;;;;;;1.30;0.38;;;24.30;96.90;;;;;;3642284;32;20103;-84
2020/12/02 05:41:03;;;;;;;0.30;0.20;;;24.30;96.80;;;;;;3608849;32;20103;-85
2020/12/02 05:43:53;;;;;;;0.40;0.20;;;24.20;96.80;;;;;;3619512;32;20084;-84
2020/12/02 05:46:44;;;;;;;1.55;0.20;;;24.20;96.60;;;;;;3587806;33;20091;-85
2020/12/02 05:49:14;;;;;;;0.95;0.38;;;24.20;96.70;;;;;;3652202;32;20091;-87
2020/12/02 05:51:42;;;;;;;0.60;0.30;;;24.30;96.60;;;;;;3571703;32;20103;-86
2020/12/02 05:54:21;;;;;;;0.38;0.22;;;24.30;96.80;;;;;;3621316;32;20126;-87
2020/12/02 05:56:47;;;;;;;1.08;0.50;;;24.30;96.80;;;;;;3615153;32;20098;-87
2020/12/02 05:59:17;;;;;;;0.57;0.20;;;24.20;96.60;;;;;;3649464;32;20098;-86
2020/12/02 06:01:45;;;;;;;1.77;0.30;;;24.30;96.40;;;;;;3647394;32;20107;-87
2020/12/02 06:04:27;;;;;;;1.88;0.30;;;24.30;96.00;;;;;;3592971;32;20098;-87
2020/12/02 06:06:57;;;;;;;1.95;0.20;;;24.20;96.50;;;;;;3579083;40;20100;-87
2020/12/02 06:09:41;;;;;;;0.20;0.10;;;24.30;96.50;;;;;;3612584;32;20119;-87
2020/12/02 06:12:15;;;;;;;0.50;0.20;;;24.20;96.40;;;;;;3673599;32;20379;-85
2020/12/02 06:14:42;;;;;;;0.50;0.30;;;24.20;96.80;;;;;;3610207;32;20096;-85
2020/12/02 06:17:27;;;;;;;1.38;0.38;;;24.10;96.60;;;;;;3619251;32;20142;-86
2020/12/02 06:19:54;;;;;;;0.85;0.20;;;24.20;96.60;;;;;;3616987;32;20095;-87
2020/12/02 06:22:47;;;;;;;0.68;0.20;;;24.20;96.70;;;;;;3570427;40;20323;-87
2020/12/02 06:25:41;;;;;;;4.03;0.38;;;24.10;96.80;;;;;;3609025;32;20104;-87
2020/12/02 06:28:10;;;;;;;1.33;0.20;;;24.10;96.70;;;;;;3623302;32;20293;-85
2020/12/02 06:30:37;;;;;;;0.30;0.20;;;24.10;96.50;;;;;;3570995;40;20376;-87
2020/12/02 06:33:19;;;;;;;0.98;0.20;;;24.10;96.70;;;;;;3642961;32;20375;-87
2020/12/02 06:35:50;;;;;;;0.60;0.13;;;24.00;96.80;;;;;;3595445;32;20092;-85
2020/12/02 06:38:27;;;;;;;0.35;0.30;;;24.00;97.10;;;;;;3640199;32;20163;-85
2020/12/02 06:41:00;;;;;;;0.98;0.30;;;23.90;97.00;;;;;;3630647;32;20090;-85
2020/12/02 06:43:45;;;;;;;0.63;0.20;;;23.90;97.10;;;;;;3632129;32;20114;-84
2020/12/02 06:46:13;;;;;;;1.83;0.68;;;23.90;97.10;;;;;;3574466;40;20095;-86
2020/12/02 06:48:40;;;;;;;1.08;0.30;;;24.00;96.50;;;;;;3617713;32;20157;-86
2020/12/02 06:51:16;;;;;;;1.75;0.40;;;24.00;97.30;;;;;;3631838;32;20088;-84
2020/12/02 06:53:43;;;;;;;0.10;0.10;;;24.00;97.10;;;;;;3594614;32;20108;-84
2020/12/02 06:56:17;;;;;;;0.40;0.20;;;24.00;97.00;;;;;;3631755;32;20095;-84
2020/12/02 06:58:59;;;;;;;2.38;0.30;;;24.00;96.70;;;;;;3645148;32;20375;-86
2020/12/02 07:01:27;;;;;;;1.77;0.47;;;24.00;96.90;;;;;;3582180;40;20108;-86
2020/12/02 07:03:58;;;;;;;1.48;0.30;;;24.00;96.70;;;;;;3560616;40;20418;-87
2020/12/02 07:06:27;;;;;;;0.20;0.20;;;24.10;96.80;;;;;;3557074;32;20608;-86
2020/12/02 07:09:14;;;;;;;0.50;0.30;;;24.00;96.90;;;;;;3634656;32;20131;-85
2020/12/02 07:12:07;;;;;;;0.65;0.43;;;24.00;97.00;;;;;;3564035;32;20291;-85
2020/12/02 07:14:39;;;;;;;3.20;0.60;;;24.00;96.90;;;;;;3613297;32;20438;-85
2020/12/02 07:17:09;;;;;;;2.22;0.30;;;24.00;97.00;;;;;;3614721;32;20132;-86
2020/12/02 07:19:39;;;;;;;0.75;0.30;;;24.00;97.00;;;;;;3658628;32;20154;-86
2020/12/02 07:22:13;;;;;;;0.73;0.25;;;24.10;96.60;;;;;;3580960;32;20124;-86
2020/12/02 07:24:48;;;;;;;0.55;0.30;;;24.10;96.80;;;;;;3552631;40;20326;-86
2020/12/02 07:27:18;;;;;;;0.65;0.22;;;24.10;96.50;;;;;;3599031;32;20176;-86
2020/12/02 07:29:44;;;;;;;0.20;0.20;;;24.10;96.40;;;;;;3620453;32;20115;-86
2020/12/02 07:32:19;;;;;;;1.02;0.30;;;24.20;96.40;;;;;;3643761;32;20112;-83
2020/12/02 07:34:46;;;;;;;1.48;0.30;;;24.10;96.50;;;;;;3574782;32;20114;-85
2020/12/02 07:37:17;;;;;;;1.60;0.60;;;24.20;96.70;;;;;;3634654;32;20148;-86
2020/12/02 07:39:59;;;;;;;0.90;0.30;;;24.20;96.70;;;;;;3562509;40;20099;-84
2020/12/02 07:42:31;;;;;;;;;;;24.20;96.30;;;;;;3685608;32;20403;-87
2020/12/02 07:45:16;;;;;;;0.85;0.20;;;24.10;96.20;;;;;;3628883;32;20291;-87
2020/12/02 07:47:48;;;;;;;0.50;0.30;;;24.20;96.20;;;;;;3648229;32;20127;-88
2020/12/02 07:50:26;;;;;;;0.40;0.30;;;24.20;96.00;;;;;;3637783;32;20095;-87
2020/12/02 07:53:02;;;;;;;0.52;0.40;;;24.10;96.30;;;;;;3584644;40;20131;-84
2020/12/02 07:55:41;;;;;;;0.65;0.20;;;24.20;96.70;;;;;;3584755;40;20103;-84
2020/12/02 07:58:14;;;;;;;0.52;0.20;;;24.20;96.60;;;;;;3681108;32;20174;-85
2020/12/02 08:00:43;;;;;;;0.68;0.28;;;24.20;96.50;;;;;;3655767;32;20087;-87
2020/12/02 08:03:37;;;;;;;1.20;0.50;;;24.10;96.30;;;;;;3598304;32;20100;-86
2020/12/02 08:06:56;;;;;;;0.30;0.20;;;24.10;96.40;;;;;;3651192;32;20111;-85
2020/12/02 08:09:23;;;;;;;1.23;0.50;;;24.10;96.40;;;;;;3581949;40;20088;-87
2020/12/02 08:11:59;;;;;;;1.85;0.40;;;24.00;96.60;;;;;;3620818;32;20142;-86
2020/12/02 08:14:33;;;;;;;0.50;0.30;;;23.90;96.30;;;;;;3645282;32;20161;-87
2020/12/02 08:17:10;;;;;;;3.03;0.40;;;23.90;96.40;;;;;;3579817;40;20103;-86
2020/12/02 08:19:40;;;;;;;1.27;0.22;;;23.90;96.30;;;;;;3682260;32;20103;-86
2020/12/02 08:22:33;;;;;;;0.70;0.40;;;24.00;96.20;;;;;;3587363;32;20107;-86
2020/12/02 08:25:13;;;;;;;0.65;0.40;;;23.80;96.00;;;;;;3610254;33;20095;-86
2020/12/02 08:27:45;;;;;;;1.25;0.30;;;23.90;96.40;;;;;;3574094;40;20087;-86
2020/12/02 08:30:18;;;;;;;1.83;0.30;;;23.80;96.10;;;;;;3653867;32;20151;-87
2020/12/02 08:32:57;;;;;;;3.33;0.50;;;23.80;96.40;;;;;;3641170;32;20090;-86
2020/12/02 08:35:29;;;;;;;2.67;0.30;;;23.80;96.60;;;;;;3644424;32;20083;-87
2020/12/02 08:38:03;;;;;;;2.42;0.30;;;23.70;96.70;;;;;;3646841;32;20368;-86
2020/12/02 08:40:29;;;;;;;0.60;0.55;;;23.70;96.60;;;;;;3586703;40;20096;-86
2020/12/02 08:43:18;;;;;;;2.13;0.50;;;23.80;96.60;;;;;;3643006;32;20156;-87
2020/12/02 08:45:57;;;;;;;0.40;0.30;;;23.70;96.80;;;;;;3571834;40;20167;-86
2020/12/02 08:48:24;;;;;;;0.50;0.40;;;23.60;96.90;;;;;;3603851;32;20095;-86
2020/12/02 08:50:51;;;;;;;0.63;0.45;;;23.70;96.80;;;;;;3666251;32;20091;-86
2020/12/02 08:53:27;;;;;;;0.70;0.47;;;23.80;97.30;;;;;;3625769;32;20295;-86
2020/12/02 08:55:55;;;;;;;2.95;0.68;;;23.80;96.60;;;;;;3582217;40;20102;-86
2020/12/02 08:58:22;;;;;;;1.77;0.50;;;23.80;96.60;;;;;;3572652;40;20376;-85
2020/12/02 09:00:49;;;;;;;1.33;0.50;;;23.80;96.60;;;;;;3632022;32;20084;-86
2020/12/02 09:03:16;;;;;;;2.42;0.52;;;23.90;96.50;;;;;;3580778;40;20123;-86
2020/12/02 09:05:43;;;;;;;3.25;0.35;;;23.80;96.70;;;;;;3656647;32;20091;-86
2020/12/02 09:08:09;;;;;;;1.80;0.40;;;23.60;97.40;;;;;;3629446;32;20201;-88
2020/12/02 09:10:36;;;;;;;3.45;0.50;;;23.60;97.10;;;;;;3583901;40;20111;-86
2020/12/02 09:13:03;;;;;;;0.30;0.22;;;23.70;96.70;;;;;;3586009;32;20158;-86
2020/12/02 09:15:30;;;;;;;0.30;0.30;;;23.80;96.50;;;;;;3672813;32;20099;-85
2020/12/02 09:17:57;;;;;;;2.88;0.80;;;23.80;96.60;;;;;;3580029;32;20319;-85
2020/12/02 09:20:25;;;;;;;3.92;0.40;;;23.80;96.70;;;;;;3641875;32;20360;-87
2020/12/02 09:22:52;;;;;;;0.47;0.30;;;23.90;96.70;;;;;;3651741;32;20111;-87
2020/12/02 09:25:19;;;;;;;3.38;0.57;;;23.80;96.70;;;;;;3573892;32;20075;-87
2020/12/02 09:27:45;;;;;;;0.30;0.30;;;23.90;96.40;;;;;;3633324;32;20115;-87
2020/12/02 09:30:12;;;;;;;1.17;0.20;;;23.80;96.70;;;;;;3656812;32;20098;-87
2020/12/02 09:32:39;;;;;;;0.55;0.50;;;23.70;97.30;;;;;;3587468;32;20166;-86
2020/12/02 09:35:07;;;;;;;1.05;0.80;;;23.50;97.80;;;;;;3633469;32;20418;-86
2020/12/02 09:37:35;;;;;;;2.08;0.40;;;23.40;98.00;;;;;;3650793;32;20095;-87
2020/12/02 09:40:05;;;;;;;1.75;0.95;;;23.50;98.10;;;;;;3577164;32;20087;-86
2020/12/02 09:42:41;;;;;;;1.15;0.40;;;23.60;97.60;;;;;;3648515;32;20095;-87
2020/12/02 09:45:23;;;;;;;0.73;0.60;;;23.70;97.70;;;;;;3615409;32;20100;-88
2020/12/02 09:47:50;;;;;;;1.02;0.40;;;23.70;97.40;;;;;;3621529;32;20119;-88
2020/12/02 09:50:17;;;;;;;0.95;0.55;;;23.80;97.30;;;;;;3631607;32;20399;-89
2020/12/02 09:52:51;;;;;;;1.42;0.80;;;23.80;97.10;;;;;;3717036;32;20080;-90
2020/12/02 09:55:25;;;;;;;1.40;0.60;;;23.90;96.90;;;;;;3597569;33;20056;-91
2020/12/02 09:57:53;;;;;;;2.03;0.57;;;23.90;96.80;;;;;;3633079;32;20100;-90
2020/12/02 10:05:11;;;;;;;3.53;0.57;;;23.90;96.60;;;;;;3576763;40;20092;-87
2020/12/02 10:08:18;;;;;;;1.15;0.45;;;24.00;96.40;;;;;;3631096;32;20100;-87
2020/12/02 10:11:10;;;;;;;1.08;0.60;;;24.00;96.40;;;;;;3575343;40;20092;-88
2020/12/02 10:13:52;;;;;;;2.03;0.50;;;24.00;96.10;;;;;;3598914;32;20096;-87
2020/12/02 10:16:47;;;;;;;0.50;0.40;;;24.00;96.50;;;;;;3612621;32;20095;-87
2020/12/02 10:19:23;;;;;;;1.98;0.52;;;24.00;96.60;;;;;;3635430;32;20083;-86
2020/12/02 10:22:07;;;;;;;1.20;0.57;;;23.90;96.90;;;;;;3611252;32;20088;-87
2020/12/02 10:24:33;;;;;;;3.38;0.65;;;23.90;97.00;;;;;;3573187;40;20088;-88
2020/12/02 10:27:44;;;;;;;0.68;0.43;;;24.00;96.90;;;;;;3650643;32;20096;-87
2020/12/02 10:30:23;;;;;;;0.80;0.60;;;23.90;96.80;;;;;;3539715;40;20117;-86
2020/12/02 10:33:20;;;;;;;1.30;0.80;;;24.00;96.60;;;;;;3658674;32;20376;-86
2020/12/02 10:35:48;;;;;;;4.72;0.85;;;24.00;96.80;;;;;;3591512;32;20104;-86
2020/12/02 10:38:31;;;;;;;2.08;0.70;;;23.90;97.10;;;;;;3574913;40;20088;-87
2020/12/02 10:41:32;;;;;;;0.90;0.60;;;23.90;97.20;;;;;;3612566;32;20098;-85
2020/12/02 10:44:31;;;;;;;1.63;0.70;;;23.90;97.30;;;;;;3627020;32;20134;-86
2020/12/02 10:47:28;;;;;;;1.05;0.77;;;23.80;97.20;;;;;;3640403;32;20107;-84
2020/12/02 10:49:56;;;;;;;1.20;0.70;;;23.80;97.00;;;;;;3585944;40;20096;-86
2020/12/02 10:52:22;;;;;;;1.42;0.60;;;23.90;97.10;;;;;;3661636;32;20161;-85
2020/12/02 10:54:51;;;;;;;1.83;0.90;;;23.90;96.90;;;;;;3584553;32;20115;-87
2020/12/02 10:57:24;;;;;;;3.13;1.30;;;23.90;96.80;;;;;;3629427;32;20095;-86
2020/12/02 10:59:54;;;;;;;3.33;1.20;;;23.90;97.00;;;;;;3626712;32;20095;-84
2020/12/02 11:02:30;;;;;;;1.50;0.85;;;23.90;97.10;;;;;;3658140;32;20099;-86
2020/12/02 11:05:00;;;;;;;1.45;0.90;;;23.80;97.20;;;;;;3638977;32;20323;-85
2020/12/02 11:07:51;;;;;;;5.63;1.10;;;23.80;97.20;;;;;;3566808;32;20087;-88
2020/12/02 11:10:44;;;;;;;3.67;1.00;;;23.80;97.10;;;;;;3627205;32;20096;-87
2020/12/02 11:13:32;;;;;;;;;;;23.80;97.10;;;;;;3566594;40;20318;-86
2020/12/02 11:16:04;;;;;;;2.50;0.70;;;23.80;97.00;;;;;;3567168;40;19988;-85
2020/12/02 11:18:46;;;;;;;3.00;1.00;;;23.80;97.00;;;;;;3648123;32;20088;-87
2020/12/02 11:21:42;;;;;;;2.85;1.25;;;23.80;96.90;;;;;;3564468;40;20304;-86
2020/12/02 11:24:30;;;;;;;2.05;1.00;;;23.70;97.20;;;;;;3601322;32;20115;-85
2020/12/02 11:26:57;;;;;;;2.47;1.10;;;23.70;97.50;;;;;;3621883;32;20100;-85
2020/12/02 11:29:24;;;;;;;3.35;1.10;;;23.70;97.50;;;;;;3604419;32;20087;-85
2020/12/02 11:32:29;;;;;;;5.60;1.02;;;23.80;97.80;;;;;;3648232;32;20092;-86
2020/12/02 11:35:22;;;;;;;1.50;0.80;;;23.90;97.50;;;;;;3562949;40;20100;-86
2020/12/02 11:38:16;;;;;;;1.13;0.60;;;24.00;97.70;;;;;;3598256;32;20088;-83
2020/12/02 11:41:07;;;;;;;1.85;0.60;;;24.10;97.30;;;;;;3640121;32;20096;-81
2020/12/02 11:43:49;;;;;;;1.98;0.50;;;24.20;97.20;;;;;;3563145;40;20092;-83
2020/12/02 11:46:18;;;;;;;4.28;1.27;;;24.20;97.40;;;;;;3577939;32;20139;-82
2020/12/02 11:49:17;;;;;;;1.55;1.02;;;24.30;96.90;;;;;;3622402;32;20094;-84
2020/12/02 11:52:18;;;;;;;1.92;0.93;;;24.30;96.50;;;;;;3554672;40;20096;-82
2020/12/02 11:54:45;;;;;;;1.27;0.93;;;24.40;96.00;;;;;;3568292;32;20088;-87
2020/12/02 11:57:14;;;;;;;1.92;1.27;;;24.40;95.80;;;;;;3632226;32;20101;-83
2020/12/02 11:59:41;;;;;;;2.33;1.38;;;24.50;96.30;;;;;;3636253;32;20092;-84
2020/12/02 12:02:22;;;;;;;2.60;1.17;;;24.50;96.10;;;;;;3557269;32;20107;-84
2020/12/02 12:05:09;;;;;;;3.00;0.90;;;24.60;96.10;;;;;;3610065;32;20104;-84
2020/12/02 12:08:07;;;;;;;1.50;0.98;;;24.80;95.80;;;;;;3633237;32;20111;-84
2020/12/02 12:10:52;;;;;;;2.55;0.90;;;24.80;95.30;;;;;;3559598;40;20091;-84
2020/12/02 12:13:32;;;;;;;0.82;0.73;;;24.90;94.90;;;;;;3614013;32;20080;-85
2020/12/02 12:16:11;;;;;;;2.13;1.33;;;25.10;94.80;;;;;;3652707;32;20080;-85
2020/12/02 12:18:45;;;;;;;5.13;1.92;;;25.10;93.90;;;;;;3626188;32;20096;-84
2020/12/02 12:21:37;;;;;;;3.13;1.42;;;25.20;93.80;;;;;;3570906;40;20080;-83
2020/12/02 12:24:11;;;;;;;3.53;1.10;;;25.20;92.90;;;;;;3620184;32;20107;-82
2020/12/02 12:26:45;;;;;;;4.07;0.82;;;25.30;92.70;;;;;;3630708;32;20276;-82
2020/12/02 12:29:12;;;;;;;3.28;1.02;;;25.30;93.00;;;;;;3666210;32;20091;-83
2020/12/02 12:31:48;;;;;;;2.47;1.10;;;25.40;93.20;;;;;;3579125;40;20161;-83
2020/12/02 12:34:26;;;;;;;2.08;0.88;;;25.50;93.40;;;;;;3644555;32;20291;-84
2020/12/02 12:37:04;;;;;;;2.70;0.80;;;25.50;93.60;;;;;;3586679;40;20098;-83
2020/12/02 12:39:54;;;;;;;2.33;0.70;;;25.40;93.70;;;;;;3699893;32;20092;-84
2020/12/02 12:42:23;;;;;;;4.55;0.80;;;25.40;93.30;;;;;;3573797;40;20083;-86
2020/12/02 12:44:50;;;;;;;2.33;0.77;;;25.40;93.80;;;;;;3619833;32;20095;-84
2020/12/02 12:47:33;;;;;;;1.40;0.80;;;25.50;93.70;;;;;;3600857;32;20398;-86
2020/12/02 12:49:59;;;;;;;;;;;25.50;93.60;;;;;;3630920;32;20104;-85
2020/12/02 12:52:30;;;;;;;3.72;0.80;;;25.50;94.00;;;;;;3626567;32;20209;-86
2020/12/02 12:54:56;;;;;;;1.30;1.00;;;25.40;93.90;;;;;;3643787;32;20107;-86
2020/12/02 12:57:28;;;;;;;2.33;1.65;;;25.50;94.20;;;;;;3656923;32;20100;-85
2020/12/02 13:00:11;;;;;;;2.67;1.10;;;25.60;94.50;;;;;;3598253;32;20080;-87
2020/12/02 13:02:37;;;;;;;;;;;25.70;94.90;;;;;;3572349;40;20092;-87
2020/12/02 13:05:11;;;;;;;1.98;1.50;;;25.80;94.70;;;;;;3625848;32;19991;-85
2020/12/02 13:10:19;;;;;;;2.42;1.13;;;25.80;94.50;;;;;;5062535;28;20425;-87
2020/12/02 13:13:16;;;;;;;1.67;0.70;;;25.80;94.00;;;;;;5062287;28;20029;-87
2020/12/02 13:16:06;;;;;;;3.03;0.70;;;25.80;93.80;;;;;;5063426;28;20048;-85
2020/12/02 13:18:50;;;;;;;3.08;1.27;;;25.90;93.20;;;;;;5063544;28;20017;-85
2020/12/02 13:21:35;;;;;;;2.72;1.13;;;25.90;93.10;;;;;;5061751;28;20021;-85
2020/12/02 13:24:24;;;;;;;1.38;0.60;;;26.10;94.10;;;;;;5062926;28;20018;-85
2020/12/02 13:27:10;;;;;;;1.98;0.98;;;26.20;92.20;;;;;;5050961;28;20030;-87
2020/12/02 13:29:40;;;;;;;0.73;0.30;;;26.30;92.90;;;;;;5063117;28;20029;-86
2020/12/02 13:32:24;;;;;;;2.15;0.50;;;26.40;91.70;;;;;;5061064;28;20020;-84
2020/12/02 13:34:52;;;;;;;1.50;0.50;;;26.50;91.50;;;;;;5060917;28;20025;-86
2020/12/02 13:37:18;;;;;;;1.23;0.77;;;26.60;91.80;;;;;;5060338;28;20361;-87
2020/12/02 13:39:49;;;;;;;1.55;0.30;;;26.70;91.30;;;;;;5060145;28;20028;-86
2020/12/02 13:42:16;;;;;;;2.15;0.55;;;26.60;90.30;;;;;;5061796;28;20368;-88
2020/12/02 13:45:11;;;;;;;1.02;0.73;;;26.60;90.60;;;;;;5060017;28;20032;-87